METAR Data
IDs: Format: Raw Decoded Include TAF

Data at: 2134 UTC 08 Aug 2020

METAR for:KBIJ (Blakely/Early Cnty, GA, US)
Text:KBIJ 082115Z AUTO 00000KT 10SM CLR 27/21 A3010 RMK AO2 LTG DSNT S THRU W
Temperature: 27.0°C ( 81°F)
Dewpoint: 21.0°C ( 70°F) [RH = 70%]
Pressure (altimeter):30.10 inches Hg (1019.4 mb)
Winds:calm
Visibility:10 or more sm (16+ km)
Ceiling:at least 12,000 feet AGL
Clouds:sky clear below 12,000 feet AGL
QC Flag:automated observation with no human augmentation
Text:KBIJ 082055Z AUTO 04003KT 10SM CLR 27/21 A3010 RMK AO2
Temperature: 27.0°C ( 81°F)
Dewpoint: 21.0°C ( 70°F) [RH = 70%]
Pressure (altimeter):30.10 inches Hg (1019.4 mb)
Winds:from the NE (40 degrees) at 3 MPH (3 knots; 1.5 m/s)
Visibility:10 or more sm (16+ km)
Ceiling:at least 12,000 feet AGL
Clouds:sky clear below 12,000 feet AGL
QC Flag:automated observation with no human augmentation
Text:KBIJ 082035Z AUTO 00000KT 10SM SCT048 SCT070 SCT090 27/22 A3011 RMK AO2 LTG DSNT S
Temperature: 27.0°C ( 81°F)
Dewpoint: 22.0°C ( 72°F) [RH = 74%]
Pressure (altimeter):30.11 inches Hg (1019.7 mb)
Winds:calm
Visibility:10 or more sm (16+ km)
Ceiling:at least 12,000 feet AGL
Clouds: scattered clouds at 4800 feet AGL, scattered clouds at 7000 feet AGL, scattered clouds at 9000 feet AGL
QC Flag:automated observation with no human augmentation
Text:KBIJ 082015Z AUTO 00000KT 10SM -RA SCT050 SCT070 BKN090 26/22 A3012 RMK AO2 LTG DSNT SW
Temperature: 26.0°C ( 79°F)
Dewpoint: 22.0°C ( 72°F) [RH = 79%]
Pressure (altimeter):30.12 inches Hg (1020.1 mb)
Winds:calm
Visibility:10 or more sm (16+ km)
Ceiling:9000 feet AGL
Clouds: scattered clouds at 5000 feet AGL, scattered clouds at 7000 feet AGL, broken clouds at 9000 feet AGL
Weather:-RA (light rain)
QC Flag:automated observation with no human augmentation
Text:KBIJ 081955Z AUTO 21004KT 10SM SCT050 SCT110 27/21 A3013 RMK AO2 LTG DSNT SW AND NW
Temperature: 27.0°C ( 81°F)
Dewpoint: 21.0°C ( 70°F) [RH = 70%]
Pressure (altimeter):30.13 inches Hg (1020.4 mb)
Winds:from the SSW (210 degrees) at 5 MPH (4 knots; 2.1 m/s)
Visibility:10 or more sm (16+ km)
Ceiling:at least 12,000 feet AGL
Clouds: scattered clouds at 5000 feet AGL, scattered clouds at 11000 feet AGL
QC Flag:automated observation with no human augmentation
Text:KBIJ 081935Z AUTO 22009KT 10SM CLR 27/22 A3013 RMK AO2 LTG DSNT S AND W
Temperature: 27.0°C ( 81°F)
Dewpoint: 22.0°C ( 72°F) [RH = 74%]
Pressure (altimeter):30.13 inches Hg (1020.4 mb)
Winds:from the SW (220 degrees) at 10 MPH (9 knots; 4.6 m/s)
Visibility:10 or more sm (16+ km)
Ceiling:at least 12,000 feet AGL
Clouds:sky clear below 12,000 feet AGL
QC Flag:automated observation with no human augmentation
Text:KBIJ 081915Z AUTO 09006KT 10SM -RA SCT015 SCT037 BKN060 26/20 A3011 RMK AO2 LTG DSNT S THRU NW
Temperature: 26.0°C ( 79°F)
Dewpoint: 20.0°C ( 68°F) [RH = 70%]
Pressure (altimeter):30.11 inches Hg (1019.7 mb)
Winds:from the E (90 degrees) at 7 MPH (6 knots; 3.1 m/s)
Visibility:10 or more sm (16+ km)
Ceiling:6000 feet AGL
Clouds: scattered clouds at 1500 feet AGL, scattered clouds at 3700 feet AGL, broken clouds at 6000 feet AGL
Weather:-RA (light rain)
QC Flag:automated observation with no human augmentation
Text:KBIJ 081855Z AUTO 21003G18KT 3/4SM +RA BKN015 OVC033 25/20 A3015 RMK AO2 LTG DSNT SE SW AND NW
Temperature: 25.0°C ( 77°F)
Dewpoint: 20.0°C ( 68°F) [RH = 74%]
Pressure (altimeter):30.15 inches Hg (1021.1 mb)
Winds:from the SSW (210 degrees) at 3 MPH (3 knots; 1.5 m/s) gusting to 21 MPH (18 knots; 9.3 m/s)
Visibility: 0.75 sm ( 1.21 km)
Ceiling:1500 feet AGL
Clouds: broken clouds at 1500 feet AGL, overcast cloud deck at 3300 feet AGL
Weather:+RA (heavy rain)
QC Flag:automated observation with no human augmentation
Text:KBIJ 081835Z AUTO 34004KT 7SM +TSRA SCT043 BKN050 OVC090 24/20 A3014 RMK AO2 LTG DSNT NW THRU E
Temperature: 24.0°C ( 75°F)
Dewpoint: 20.0°C ( 68°F) [RH = 78%]
Pressure (altimeter):30.14 inches Hg (1020.7 mb)
Winds:from the NNW (340 degrees) at 5 MPH (4 knots; 2.1 m/s)
Visibility: 7 sm ( 11 km)
Ceiling:5000 feet AGL
Clouds: scattered clouds at 4300 feet AGL, broken clouds at 5000 feet AGL, overcast cloud deck at 9000 feet AGL
Weather:+TSRA (heavy rain associated with thunderstorm(s))
QC Flag:automated observation with no human augmentation
Text:KBIJ 081815Z AUTO 00000KT 2SM TSRA SCT036 OVC050 25/21 A3014 RMK AO2 LTG DSNT ALQS
Temperature: 25.0°C ( 77°F)
Dewpoint: 21.0°C ( 70°F) [RH = 79%]
Pressure (altimeter):30.14 inches Hg (1020.7 mb)
Winds:calm
Visibility: 2.00 sm ( 3.22 km)
Ceiling:5000 feet AGL
Clouds: scattered clouds at 3600 feet AGL, overcast cloud deck at 5000 feet AGL
Weather:TSRA (rain associated with thunderstorm(s))
QC Flag:automated observation with no human augmentation
Text:KBIJ 081755Z AUTO 33006KT 280V360 10SM TSRA BKN050 OVC085 30/21 A3015 RMK AO2 LTG DSNT NE AND E
Temperature: 30.0°C ( 86°F)
Dewpoint: 21.0°C ( 70°F) [RH = 59%]
Pressure (altimeter):30.15 inches Hg (1021.1 mb)
Winds:from the NNW (330 degrees) at 7 MPH (6 knots; 3.1 m/s)
Visibility:10 or more sm (16+ km)
Ceiling:5000 feet AGL
Clouds: broken clouds at 5000 feet AGL, overcast cloud deck at 8500 feet AGL
Weather:TSRA (rain associated with thunderstorm(s))
QC Flag:automated observation with no human augmentation
Text:KBIJ 081735Z AUTO 01004KT 7SM BKN050 BKN065 BKN095 32/20 A3014 RMK AO2
Temperature: 32.0°C ( 90°F)
Dewpoint: 20.0°C ( 68°F) [RH = 49%]
Pressure (altimeter):30.14 inches Hg (1020.7 mb)
Winds:from the N (10 degrees) at 5 MPH (4 knots; 2.1 m/s)
Visibility: 7 sm ( 11 km)
Ceiling:5000 feet AGL
Clouds: broken clouds at 5000 feet AGL, broken clouds at 6500 feet AGL, broken clouds at 9500 feet AGL
QC Flag:automated observation with no human augmentation
Text:KBIJ 081715Z AUTO 21003KT 10SM SCT048 33/19 A3014 RMK AO2 LTG DSNT NE
Temperature: 33.0°C ( 91°F)
Dewpoint: 19.0°C ( 66°F) [RH = 44%]
Pressure (altimeter):30.14 inches Hg (1020.7 mb)
Winds:from the SSW (210 degrees) at 3 MPH (3 knots; 1.5 m/s)
Visibility:10 or more sm (16+ km)
Ceiling:at least 12,000 feet AGL
Clouds: scattered clouds at 4800 feet AGL
QC Flag:automated observation with no human augmentation
Text:KBIJ 081655Z AUTO 23005KT 10SM SCT048 32/20 A3015 RMK AO2
Temperature: 32.0°C ( 90°F)
Dewpoint: 20.0°C ( 68°F) [RH = 49%]
Pressure (altimeter):30.15 inches Hg (1021.1 mb)
Winds:from the SW (230 degrees) at 6 MPH (5 knots; 2.6 m/s)
Visibility:10 or more sm (16+ km)
Ceiling:at least 12,000 feet AGL
Clouds: scattered clouds at 4800 feet AGL
QC Flag:automated observation with no human augmentation
Text:KBIJ 081635Z AUTO 25006KT 10SM CLR 32/20 A3015 RMK AO2
Temperature: 32.0°C ( 90°F)
Dewpoint: 20.0°C ( 68°F) [RH = 49%]
Pressure (altimeter):30.15 inches Hg (1021.1 mb)
Winds:from the WSW (250 degrees) at 7 MPH (6 knots; 3.1 m/s)
Visibility:10 or more sm (16+ km)
Ceiling:at least 12,000 feet AGL
Clouds:sky clear below 12,000 feet AGL
QC Flag:automated observation with no human augmentation
Text:KBIJ 081615Z AUTO 16004KT 10SM SCT039 32/20 A3016 RMK AO2
Temperature: 32.0°C ( 90°F)
Dewpoint: 20.0°C ( 68°F) [RH = 49%]
Pressure (altimeter):30.16 inches Hg (1021.4 mb)
Winds:from the SSE (160 degrees) at 5 MPH (4 knots; 2.1 m/s)
Visibility:10 or more sm (16+ km)
Ceiling:at least 12,000 feet AGL
Clouds: scattered clouds at 3900 feet AGL
QC Flag:automated observation with no human augmentation
Text:KBIJ 081555Z AUTO 17003KT 10SM SCT037 SCT080 31/20 A3017 RMK AO2
Temperature: 31.0°C ( 88°F)
Dewpoint: 20.0°C ( 68°F) [RH = 52%]
Pressure (altimeter):30.17 inches Hg (1021.8 mb)
Winds:from the S (170 degrees) at 3 MPH (3 knots; 1.5 m/s)
Visibility:10 or more sm (16+ km)
Ceiling:at least 12,000 feet AGL
Clouds: scattered clouds at 3700 feet AGL, scattered clouds at 8000 feet AGL
QC Flag:automated observation with no human augmentation
Text:KBIJ 081535Z AUTO 19004KT 10SM BKN034 BKN040 31/20 A3016 RMK AO2
Temperature: 31.0°C ( 88°F)
Dewpoint: 20.0°C ( 68°F) [RH = 52%]
Pressure (altimeter):30.16 inches Hg (1021.4 mb)
Winds:from the S (190 degrees) at 5 MPH (4 knots; 2.1 m/s)
Visibility:10 or more sm (16+ km)
Ceiling:3400 feet AGL
Clouds: broken clouds at 3400 feet AGL, broken clouds at 4000 feet AGL
QC Flag:automated observation with no human augmentation
Text:KBIJ 081515Z AUTO 20003KT 10SM SCT032 31/21 A3016 RMK AO2
Temperature: 31.0°C ( 88°F)
Dewpoint: 21.0°C ( 70°F) [RH = 55%]
Pressure (altimeter):30.16 inches Hg (1021.4 mb)
Winds:from the SSW (200 degrees) at 3 MPH (3 knots; 1.5 m/s)
Visibility:10 or more sm (16+ km)
Ceiling:at least 12,000 feet AGL
Clouds: scattered clouds at 3200 feet AGL
QC Flag:automated observation with no human augmentation
Text:KBIJ 081455Z AUTO 27003KT 10SM CLR 30/21 A3016 RMK AO2 LTG DSNT SE
Temperature: 30.0°C ( 86°F)
Dewpoint: 21.0°C ( 70°F) [RH = 59%]
Pressure (altimeter):30.16 inches Hg (1021.4 mb)
Winds:from the W (270 degrees) at 3 MPH (3 knots; 1.5 m/s)
Visibility:10 or more sm (16+ km)
Ceiling:at least 12,000 feet AGL
Clouds:sky clear below 12,000 feet AGL
QC Flag:automated observation with no human augmentation
Text:KBIJ 081435Z AUTO 00000KT 10SM CLR 30/22 A3016 RMK AO2 LTG DSNT SE
Temperature: 30.0°C ( 86°F)
Dewpoint: 22.0°C ( 72°F) [RH = 62%]
Pressure (altimeter):30.16 inches Hg (1021.4 mb)
Winds:calm
Visibility:10 or more sm (16+ km)
Ceiling:at least 12,000 feet AGL
Clouds:sky clear below 12,000 feet AGL
QC Flag:automated observation with no human augmentation
Text:KBIJ 081415Z AUTO 00000KT 10SM CLR 29/21 A3016 RMK AO2 LTG DSNT SE
Temperature: 29.0°C ( 84°F)
Dewpoint: 21.0°C ( 70°F) [RH = 62%]
Pressure (altimeter):30.16 inches Hg (1021.4 mb)
Winds:calm
Visibility:10 or more sm (16+ km)
Ceiling:at least 12,000 feet AGL
Clouds:sky clear below 12,000 feet AGL
QC Flag:automated observation with no human augmentation
Text:KBIJ 081355Z AUTO 27004KT 10SM CLR 28/22 A3016 RMK AO2
Temperature: 28.0°C ( 82°F)
Dewpoint: 22.0°C ( 72°F) [RH = 70%]
Pressure (altimeter):30.16 inches Hg (1021.4 mb)
Winds:from the W (270 degrees) at 5 MPH (4 knots; 2.1 m/s)
Visibility:10 or more sm (16+ km)
Ceiling:at least 12,000 feet AGL
Clouds:sky clear below 12,000 feet AGL
QC Flag:automated observation with no human augmentation
Text:KBIJ 081335Z AUTO 27003KT 10SM CLR 28/22 A3016 RMK AO2 LTG DSNT SE
Temperature: 28.0°C ( 82°F)
Dewpoint: 22.0°C ( 72°F) [RH = 70%]
Pressure (altimeter):30.16 inches Hg (1021.4 mb)
Winds:from the W (270 degrees) at 3 MPH (3 knots; 1.5 m/s)
Visibility:10 or more sm (16+ km)
Ceiling:at least 12,000 feet AGL
Clouds:sky clear below 12,000 feet AGL
QC Flag:automated observation with no human augmentation
Text:KBIJ 081315Z AUTO 00000KT 10SM CLR 27/22 A3016 RMK AO2 LTG DSNT SE
Temperature: 27.0°C ( 81°F)
Dewpoint: 22.0°C ( 72°F) [RH = 74%]
Pressure (altimeter):30.16 inches Hg (1021.4 mb)
Winds:calm
Visibility:10 or more sm (16+ km)
Ceiling:at least 12,000 feet AGL
Clouds:sky clear below 12,000 feet AGL
QC Flag:automated observation with no human augmentation
Text:KBIJ 081255Z AUTO 25005KT 10SM CLR 26/22 A3016 RMK AO2
Temperature: 26.0°C ( 79°F)
Dewpoint: 22.0°C ( 72°F) [RH = 79%]
Pressure (altimeter):30.16 inches Hg (1021.4 mb)
Winds:from the WSW (250 degrees) at 6 MPH (5 knots; 2.6 m/s)
Visibility:10 or more sm (16+ km)
Ceiling:at least 12,000 feet AGL
Clouds:sky clear below 12,000 feet AGL
QC Flag:automated observation with no human augmentation
Text:KBIJ 081235Z AUTO 00000KT 7SM CLR 24/22 A3015 RMK AO2
Temperature: 24.0°C ( 75°F)
Dewpoint: 22.0°C ( 72°F) [RH = 89%]
Pressure (altimeter):30.15 inches Hg (1021.1 mb)
Winds:calm
Visibility: 7 sm ( 11 km)
Ceiling:at least 12,000 feet AGL
Clouds:sky clear below 12,000 feet AGL
QC Flag:automated observation with no human augmentation
Text:KBIJ 081215Z AUTO 00000KT 7SM CLR 23/21 A3015 RMK AO2
Temperature: 23.0°C ( 73°F)
Dewpoint: 21.0°C ( 70°F) [RH = 89%]
Pressure (altimeter):30.15 inches Hg (1021.1 mb)
Winds:calm
Visibility: 7 sm ( 11 km)
Ceiling:at least 12,000 feet AGL
Clouds:sky clear below 12,000 feet AGL
QC Flag:automated observation with no human augmentation
Text:KBIJ 081155Z AUTO 00000KT 5SM BR CLR 23/21 A3014 RMK AO2
Temperature: 23.0°C ( 73°F)
Dewpoint: 21.0°C ( 70°F) [RH = 89%]
Pressure (altimeter):30.14 inches Hg (1020.7 mb)
Winds:calm
Visibility: 5 sm ( 8 km)
Ceiling:at least 12,000 feet AGL
Clouds:sky clear below 12,000 feet AGL
Weather:BR (mist)
QC Flag:automated observation with no human augmentation
Text:KBIJ 081135Z AUTO 00000KT 5SM BR CLR 22/21 A3013 RMK AO2
Temperature: 22.0°C ( 72°F)
Dewpoint: 21.0°C ( 70°F) [RH = 94%]
Pressure (altimeter):30.13 inches Hg (1020.4 mb)
Winds:calm
Visibility: 5 sm ( 8 km)
Ceiling:at least 12,000 feet AGL
Clouds:sky clear below 12,000 feet AGL
Weather:BR (mist)
QC Flag:automated observation with no human augmentation
Text:KBIJ 081115Z AUTO 00000KT 5SM BR CLR 22/20 A3013 RMK AO2
Temperature: 22.0°C ( 72°F)
Dewpoint: 20.0°C ( 68°F) [RH = 88%]
Pressure (altimeter):30.13 inches Hg (1020.4 mb)
Winds:calm
Visibility: 5 sm ( 8 km)
Ceiling:at least 12,000 feet AGL
Clouds:sky clear below 12,000 feet AGL
Weather:BR (mist)
QC Flag:automated observation with no human augmentation
Text:KBIJ 081055Z AUTO 00000KT 7SM CLR 21/20 A3013 RMK AO2
Temperature: 21.0°C ( 70°F)
Dewpoint: 20.0°C ( 68°F) [RH = 94%]
Pressure (altimeter):30.13 inches Hg (1020.4 mb)
Winds:calm
Visibility: 7 sm ( 11 km)
Ceiling:at least 12,000 feet AGL
Clouds:sky clear below 12,000 feet AGL
QC Flag:automated observation with no human augmentation
Text:KBIJ 081035Z AUTO 00000KT 7SM CLR 22/20 A3012 RMK AO2
Temperature: 22.0°C ( 72°F)
Dewpoint: 20.0°C ( 68°F) [RH = 88%]
Pressure (altimeter):30.12 inches Hg (1020.1 mb)
Winds:calm
Visibility: 7 sm ( 11 km)
Ceiling:at least 12,000 feet AGL
Clouds:sky clear below 12,000 feet AGL
QC Flag:automated observation with no human augmentation
Text:KBIJ 081015Z AUTO 00000KT 7SM CLR 22/20 A3012 RMK AO2
Temperature: 22.0°C ( 72°F)
Dewpoint: 20.0°C ( 68°F) [RH = 88%]
Pressure (altimeter):30.12 inches Hg (1020.1 mb)
Winds:calm
Visibility: 7 sm ( 11 km)
Ceiling:at least 12,000 feet AGL
Clouds:sky clear below 12,000 feet AGL
QC Flag:automated observation with no human augmentation
Text:KBIJ 080955Z AUTO 00000KT 7SM CLR 22/20 A3011 RMK AO2
Temperature: 22.0°C ( 72°F)
Dewpoint: 20.0°C ( 68°F) [RH = 88%]
Pressure (altimeter):30.11 inches Hg (1019.7 mb)
Winds:calm
Visibility: 7 sm ( 11 km)
Ceiling:at least 12,000 feet AGL
Clouds:sky clear below 12,000 feet AGL
QC Flag:automated observation with no human augmentation
Text:KBIJ 080935Z AUTO 00000KT 7SM CLR 22/21 A3011 RMK AO2
Temperature: 22.0°C ( 72°F)
Dewpoint: 21.0°C ( 70°F) [RH = 94%]
Pressure (altimeter):30.11 inches Hg (1019.7 mb)
Winds:calm
Visibility: 7 sm ( 11 km)
Ceiling:at least 12,000 feet AGL
Clouds:sky clear below 12,000 feet AGL
QC Flag:automated observation with no human augmentation
Text:KBIJ 080915Z AUTO 00000KT 7SM CLR 22/21 A3011 RMK AO2
Temperature: 22.0°C ( 72°F)
Dewpoint: 21.0°C ( 70°F) [RH = 94%]
Pressure (altimeter):30.11 inches Hg (1019.7 mb)
Winds:calm
Visibility: 7 sm ( 11 km)
Ceiling:at least 12,000 feet AGL
Clouds:sky clear below 12,000 feet AGL
QC Flag:automated observation with no human augmentation
Text:KBIJ 080855Z AUTO 00000KT 7SM CLR 22/21 A3010 RMK AO2
Temperature: 22.0°C ( 72°F)
Dewpoint: 21.0°C ( 70°F) [RH = 94%]
Pressure (altimeter):30.10 inches Hg (1019.4 mb)
Winds:calm
Visibility: 7 sm ( 11 km)
Ceiling:at least 12,000 feet AGL
Clouds:sky clear below 12,000 feet AGL
QC Flag:automated observation with no human augmentation
Text:KBIJ 080835Z AUTO 00000KT 10SM CLR 22/21 A3010 RMK AO2
Temperature: 22.0°C ( 72°F)
Dewpoint: 21.0°C ( 70°F) [RH = 94%]
Pressure (altimeter):30.10 inches Hg (1019.4 mb)
Winds:calm
Visibility:10 or more sm (16+ km)
Ceiling:at least 12,000 feet AGL
Clouds:sky clear below 12,000 feet AGL
QC Flag:automated observation with no human augmentation
Text:KBIJ 080815Z AUTO 00000KT 10SM CLR 22/21 A3010 RMK AO2
Temperature: 22.0°C ( 72°F)
Dewpoint: 21.0°C ( 70°F) [RH = 94%]
Pressure (altimeter):30.10 inches Hg (1019.4 mb)
Winds:calm
Visibility:10 or more sm (16+ km)
Ceiling:at least 12,000 feet AGL
Clouds:sky clear below 12,000 feet AGL
QC Flag:automated observation with no human augmentation
Text:KBIJ 080755Z AUTO 00000KT 10SM CLR 22/20 A3010 RMK AO2
Temperature: 22.0°C ( 72°F)
Dewpoint: 20.0°C ( 68°F) [RH = 88%]
Pressure (altimeter):30.10 inches Hg (1019.4 mb)
Winds:calm
Visibility:10 or more sm (16+ km)
Ceiling:at least 12,000 feet AGL
Clouds:sky clear below 12,000 feet AGL
QC Flag:automated observation with no human augmentation
Text:KBIJ 080735Z AUTO 00000KT 10SM CLR 22/21 A3010 RMK AO2
Temperature: 22.0°C ( 72°F)
Dewpoint: 21.0°C ( 70°F) [RH = 94%]
Pressure (altimeter):30.10 inches Hg (1019.4 mb)
Winds:calm
Visibility:10 or more sm (16+ km)
Ceiling:at least 12,000 feet AGL
Clouds:sky clear below 12,000 feet AGL
QC Flag:automated observation with no human augmentation
Text:KBIJ 080715Z AUTO 00000KT 10SM CLR 22/21 A3010 RMK AO2
Temperature: 22.0°C ( 72°F)
Dewpoint: 21.0°C ( 70°F) [RH = 94%]
Pressure (altimeter):30.10 inches Hg (1019.4 mb)
Winds:calm
Visibility:10 or more sm (16+ km)
Ceiling:at least 12,000 feet AGL
Clouds:sky clear below 12,000 feet AGL
QC Flag:automated observation with no human augmentation
Text:KBIJ 080655Z AUTO 00000KT 10SM CLR 22/21 A3010 RMK AO2
Temperature: 22.0°C ( 72°F)
Dewpoint: 21.0°C ( 70°F) [RH = 94%]
Pressure (altimeter):30.10 inches Hg (1019.4 mb)
Winds:calm
Visibility:10 or more sm (16+ km)
Ceiling:at least 12,000 feet AGL
Clouds:sky clear below 12,000 feet AGL
QC Flag:automated observation with no human augmentation
Text:KBIJ 080635Z AUTO 00000KT 10SM CLR 23/21 A3010 RMK AO2
Temperature: 23.0°C ( 73°F)
Dewpoint: 21.0°C ( 70°F) [RH = 89%]
Pressure (altimeter):30.10 inches Hg (1019.4 mb)
Winds:calm
Visibility:10 or more sm (16+ km)
Ceiling:at least 12,000 feet AGL
Clouds:sky clear below 12,000 feet AGL
QC Flag:automated observation with no human augmentation
Text:KBIJ 080615Z AUTO 00000KT 10SM CLR 23/21 A3010 RMK AO2
Temperature: 23.0°C ( 73°F)
Dewpoint: 21.0°C ( 70°F) [RH = 89%]
Pressure (altimeter):30.10 inches Hg (1019.4 mb)
Winds:calm
Visibility:10 or more sm (16+ km)
Ceiling:at least 12,000 feet AGL
Clouds:sky clear below 12,000 feet AGL
QC Flag:automated observation with no human augmentation
Text:KBIJ 080555Z AUTO 00000KT 10SM CLR 23/21 A3011 RMK AO2
Temperature: 23.0°C ( 73°F)
Dewpoint: 21.0°C ( 70°F) [RH = 89%]
Pressure (altimeter):30.11 inches Hg (1019.7 mb)
Winds:calm
Visibility:10 or more sm (16+ km)
Ceiling:at least 12,000 feet AGL
Clouds:sky clear below 12,000 feet AGL
QC Flag:automated observation with no human augmentation
Text:KBIJ 080535Z AUTO 00000KT 10SM CLR 24/21 A3010 RMK AO2
Temperature: 24.0°C ( 75°F)
Dewpoint: 21.0°C ( 70°F) [RH = 83%]
Pressure (altimeter):30.10 inches Hg (1019.4 mb)
Winds:calm
Visibility:10 or more sm (16+ km)
Ceiling:at least 12,000 feet AGL
Clouds:sky clear below 12,000 feet AGL
QC Flag:automated observation with no human augmentation
Text:KBIJ 080515Z AUTO 00000KT 10SM CLR 24/21 A3011 RMK AO2
Temperature: 24.0°C ( 75°F)
Dewpoint: 21.0°C ( 70°F) [RH = 83%]
Pressure (altimeter):30.11 inches Hg (1019.7 mb)
Winds:calm
Visibility:10 or more sm (16+ km)
Ceiling:at least 12,000 feet AGL
Clouds:sky clear below 12,000 feet AGL
QC Flag:automated observation with no human augmentation
Text:KBIJ 080455Z AUTO 00000KT 10SM CLR 24/21 A3012 RMK AO2
Temperature: 24.0°C ( 75°F)
Dewpoint: 21.0°C ( 70°F) [RH = 83%]
Pressure (altimeter):30.12 inches Hg (1020.1 mb)
Winds:calm
Visibility:10 or more sm (16+ km)
Ceiling:at least 12,000 feet AGL
Clouds:sky clear below 12,000 feet AGL
QC Flag:automated observation with no human augmentation
Text:KBIJ 080435Z AUTO 00000KT 10SM CLR 24/21 A3012 RMK AO2
Temperature: 24.0°C ( 75°F)
Dewpoint: 21.0°C ( 70°F) [RH = 83%]
Pressure (altimeter):30.12 inches Hg (1020.1 mb)
Winds:calm
Visibility:10 or more sm (16+ km)
Ceiling:at least 12,000 feet AGL
Clouds:sky clear below 12,000 feet AGL
QC Flag:automated observation with no human augmentation
Text:KBIJ 080415Z AUTO 00000KT 10SM CLR 24/21 A3012 RMK AO2
Temperature: 24.0°C ( 75°F)
Dewpoint: 21.0°C ( 70°F) [RH = 83%]
Pressure (altimeter):30.12 inches Hg (1020.1 mb)
Winds:calm
Visibility:10 or more sm (16+ km)
Ceiling:at least 12,000 feet AGL
Clouds:sky clear below 12,000 feet AGL
QC Flag:automated observation with no human augmentation
Text:KBIJ 080355Z AUTO 00000KT 10SM CLR 24/21 A3011 RMK AO2
Temperature: 24.0°C ( 75°F)
Dewpoint: 21.0°C ( 70°F) [RH = 83%]
Pressure (altimeter):30.11 inches Hg (1019.7 mb)
Winds:calm
Visibility:10 or more sm (16+ km)
Ceiling:at least 12,000 feet AGL
Clouds:sky clear below 12,000 feet AGL
QC Flag:automated observation with no human augmentation
Text:KBIJ 080335Z AUTO 00000KT 10SM CLR 25/21 A3011 RMK AO2
Temperature: 25.0°C ( 77°F)
Dewpoint: 21.0°C ( 70°F) [RH = 79%]
Pressure (altimeter):30.11 inches Hg (1019.7 mb)
Winds:calm
Visibility:10 or more sm (16+ km)
Ceiling:at least 12,000 feet AGL
Clouds:sky clear below 12,000 feet AGL
QC Flag:automated observation with no human augmentation
Text:KBIJ 080315Z AUTO 00000KT 10SM CLR 25/21 A3010 RMK AO2
Temperature: 25.0°C ( 77°F)
Dewpoint: 21.0°C ( 70°F) [RH = 79%]
Pressure (altimeter):30.10 inches Hg (1019.4 mb)
Winds:calm
Visibility:10 or more sm (16+ km)
Ceiling:at least 12,000 feet AGL
Clouds:sky clear below 12,000 feet AGL
QC Flag:automated observation with no human augmentation
Text:KBIJ 080255Z AUTO 00000KT 10SM CLR 25/21 A3010 RMK AO2
Temperature: 25.0°C ( 77°F)
Dewpoint: 21.0°C ( 70°F) [RH = 79%]
Pressure (altimeter):30.10 inches Hg (1019.4 mb)
Winds:calm
Visibility:10 or more sm (16+ km)
Ceiling:at least 12,000 feet AGL
Clouds:sky clear below 12,000 feet AGL
QC Flag:automated observation with no human augmentation
Text:KBIJ 080235Z AUTO 00000KT 10SM CLR 25/21 A3010 RMK AO2
Temperature: 25.0°C ( 77°F)
Dewpoint: 21.0°C ( 70°F) [RH = 79%]
Pressure (altimeter):30.10 inches Hg (1019.4 mb)
Winds:calm
Visibility:10 or more sm (16+ km)
Ceiling:at least 12,000 feet AGL
Clouds:sky clear below 12,000 feet AGL
QC Flag:automated observation with no human augmentation
Text:KBIJ 080215Z AUTO 25003KT 10SM SCT045 SCT055 27/20 A3009 RMK AO2
Temperature: 27.0°C ( 81°F)
Dewpoint: 20.0°C ( 68°F) [RH = 66%]
Pressure (altimeter):30.09 inches Hg (1019.0 mb)
Winds:from the WSW (250 degrees) at 3 MPH (3 knots; 1.5 m/s)
Visibility:10 or more sm (16+ km)
Ceiling:at least 12,000 feet AGL
Clouds: scattered clouds at 4500 feet AGL, scattered clouds at 5500 feet AGL
QC Flag:automated observation with no human augmentation
Text:KBIJ 080155Z AUTO 00000KT 10SM SCT045 SCT055 27/21 A3008 RMK AO2
Temperature: 27.0°C ( 81°F)
Dewpoint: 21.0°C ( 70°F) [RH = 70%]
Pressure (altimeter):30.08 inches Hg (1018.7 mb)
Winds:calm
Visibility:10 or more sm (16+ km)
Ceiling:at least 12,000 feet AGL
Clouds: scattered clouds at 4500 feet AGL, scattered clouds at 5500 feet AGL
QC Flag:automated observation with no human augmentation
Text:KBIJ 080135Z AUTO 00000KT 10SM VCTS CLR 27/21 A3008 RMK AO2 LTG DSNT NW
Temperature: 27.0°C ( 81°F)
Dewpoint: 21.0°C ( 70°F) [RH = 70%]
Pressure (altimeter):30.08 inches Hg (1018.7 mb)
Winds:calm
Visibility:10 or more sm (16+ km)
Ceiling:at least 12,000 feet AGL
Clouds:sky clear below 12,000 feet AGL
Weather:VCTS (thunderstorm in vicinity)
QC Flag:automated observation with no human augmentation
Text:KBIJ 080115Z AUTO 00000KT 10SM SCT065 SCT080 28/20 A3007 RMK AO2 LTG DSNT NW
Temperature: 28.0°C ( 82°F)
Dewpoint: 20.0°C ( 68°F) [RH = 62%]
Pressure (altimeter):30.07 inches Hg (1018.4 mb)
Winds:calm
Visibility:10 or more sm (16+ km)
Ceiling:at least 12,000 feet AGL
Clouds: scattered clouds at 6500 feet AGL, scattered clouds at 8000 feet AGL
QC Flag:automated observation with no human augmentation
Text:KBIJ 080055Z AUTO 00000KT 10SM SCT065 SCT080 BKN110 28/20 A3006 RMK AO2 LTG DSNT N
Temperature: 28.0°C ( 82°F)
Dewpoint: 20.0°C ( 68°F) [RH = 62%]
Pressure (altimeter):30.06 inches Hg (1018.0 mb)
Winds:calm
Visibility:10 or more sm (16+ km)
Ceiling:11000 feet AGL
Clouds: scattered clouds at 6500 feet AGL, scattered clouds at 8000 feet AGL, broken clouds at 11000 feet AGL
QC Flag:automated observation with no human augmentation
Text:KBIJ 080035Z AUTO 20003KT 10SM VCTS SCT090 BKN110 28/20 A3006 RMK AO2 LTG DSNT N
Temperature: 28.0°C ( 82°F)
Dewpoint: 20.0°C ( 68°F) [RH = 62%]
Pressure (altimeter):30.06 inches Hg (1018.0 mb)
Winds:from the SSW (200 degrees) at 3 MPH (3 knots; 1.5 m/s)
Visibility:10 or more sm (16+ km)
Ceiling:11000 feet AGL
Clouds: scattered clouds at 9000 feet AGL, broken clouds at 11000 feet AGL
Weather:VCTS (thunderstorm in vicinity)
QC Flag:automated observation with no human augmentation
Text:KBIJ 080015Z AUTO 20004KT 10SM SCT110 28/20 A3005 RMK AO2 LTG DSNT N
Temperature: 28.0°C ( 82°F)
Dewpoint: 20.0°C ( 68°F) [RH = 62%]
Pressure (altimeter):30.05 inches Hg (1017.7 mb)
Winds:from the SSW (200 degrees) at 5 MPH (4 knots; 2.1 m/s)
Visibility:10 or more sm (16+ km)
Ceiling:at least 12,000 feet AGL
Clouds: scattered clouds at 11000 feet AGL
QC Flag:automated observation with no human augmentation
Text:KBIJ 072355Z AUTO 19004KT 10SM CLR 29/20 A3005 RMK AO2
Temperature: 29.0°C ( 84°F)
Dewpoint: 20.0°C ( 68°F) [RH = 58%]
Pressure (altimeter):30.05 inches Hg (1017.7 mb)
Winds:from the S (190 degrees) at 5 MPH (4 knots; 2.1 m/s)
Visibility:10 or more sm (16+ km)
Ceiling:at least 12,000 feet AGL
Clouds:sky clear below 12,000 feet AGL
QC Flag:automated observation with no human augmentation
Text:KBIJ 072335Z AUTO 18005KT 10SM SCT110 29/20 A3005 RMK AO2 LTG DSNT NW
Temperature: 29.0°C ( 84°F)
Dewpoint: 20.0°C ( 68°F) [RH = 58%]
Pressure (altimeter):30.05 inches Hg (1017.7 mb)
Winds:from the S (180 degrees) at 6 MPH (5 knots; 2.6 m/s)
Visibility:10 or more sm (16+ km)
Ceiling:at least 12,000 feet AGL
Clouds: scattered clouds at 11000 feet AGL
QC Flag:automated observation with no human augmentation
Text:KBIJ 072315Z AUTO 17004KT 10SM SCT110 30/20 A3005 RMK AO2
Temperature: 30.0°C ( 86°F)
Dewpoint: 20.0°C ( 68°F) [RH = 55%]
Pressure (altimeter):30.05 inches Hg (1017.7 mb)
Winds:from the S (170 degrees) at 5 MPH (4 knots; 2.1 m/s)
Visibility:10 or more sm (16+ km)
Ceiling:at least 12,000 feet AGL
Clouds: scattered clouds at 11000 feet AGL
QC Flag:automated observation with no human augmentation
Text:KBIJ 072255Z AUTO 19007KT 10SM CLR 30/20 A3005 RMK AO2
Temperature: 30.0°C ( 86°F)
Dewpoint: 20.0°C ( 68°F) [RH = 55%]
Pressure (altimeter):30.05 inches Hg (1017.7 mb)
Winds:from the S (190 degrees) at 8 MPH (7 knots; 3.6 m/s)
Visibility:10 or more sm (16+ km)
Ceiling:at least 12,000 feet AGL
Clouds:sky clear below 12,000 feet AGL
QC Flag:automated observation with no human augmentation
Text:KBIJ 072235Z AUTO 19008G14KT 10SM CLR 30/20 A3004 RMK AO2 LTG DSNT S
Temperature: 30.0°C ( 86°F)
Dewpoint: 20.0°C ( 68°F) [RH = 55%]
Pressure (altimeter):30.04 inches Hg (1017.4 mb)
Winds:from the S (190 degrees) at 9 MPH (8 knots; 4.1 m/s) gusting to 16 MPH (14 knots; 7.2 m/s)
Visibility:10 or more sm (16+ km)
Ceiling:at least 12,000 feet AGL
Clouds:sky clear below 12,000 feet AGL
QC Flag:automated observation with no human augmentation
Text:KBIJ 072215Z AUTO 18008G15KT 150V210 10SM CLR 31/19 A3003 RMK AO2
Temperature: 31.0°C ( 88°F)
Dewpoint: 19.0°C ( 66°F) [RH = 49%]
Pressure (altimeter):30.03 inches Hg (1017.0 mb)
Winds:from the S (180 degrees) at 9 MPH (8 knots; 4.1 m/s) gusting to 17 MPH (15 knots; 7.7 m/s)
Visibility:10 or more sm (16+ km)
Ceiling:at least 12,000 feet AGL
Clouds:sky clear below 12,000 feet AGL
QC Flag:automated observation with no human augmentation
Text:KBIJ 072155Z AUTO 20007KT 10SM CLR 31/18 A3002 RMK AO2 LTG DSNT SW
Temperature: 31.0°C ( 88°F)
Dewpoint: 18.0°C ( 64°F) [RH = 46%]
Pressure (altimeter):30.02 inches Hg (1016.7 mb)
Winds:from the SSW (200 degrees) at 8 MPH (7 knots; 3.6 m/s)
Visibility:10 or more sm (16+ km)
Ceiling:at least 12,000 feet AGL
Clouds:sky clear below 12,000 feet AGL
QC Flag:automated observation with no human augmentation
Text:KBIJ 072135Z AUTO 20008KT 10SM CLR 32/18 A3002 RMK AO2
Temperature: 32.0°C ( 90°F)
Dewpoint: 18.0°C ( 64°F) [RH = 43%]
Pressure (altimeter):30.02 inches Hg (1016.7 mb)
Winds:from the SSW (200 degrees) at 9 MPH (8 knots; 4.1 m/s)
Visibility:10 or more sm (16+ km)
Ceiling:at least 12,000 feet AGL
Clouds:sky clear below 12,000 feet AGL
QC Flag:automated observation with no human augmentation
Text:KBIJ 072115Z AUTO 20008KT 10SM CLR 33/17 A3002 RMK AO2 LTG DSNT SW
Temperature: 33.0°C ( 91°F)
Dewpoint: 17.0°C ( 63°F) [RH = 39%]
Pressure (altimeter):30.02 inches Hg (1016.7 mb)
Winds:from the SSW (200 degrees) at 9 MPH (8 knots; 4.1 m/s)
Visibility:10 or more sm (16+ km)
Ceiling:at least 12,000 feet AGL
Clouds:sky clear below 12,000 feet AGL
QC Flag:automated observation with no human augmentation
Text:KBIJ 072055Z AUTO 20009KT 10SM SCT065 35/16 A3002 RMK AO2 LTG DSNT SW
Temperature: 35.0°C ( 95°F)
Dewpoint: 16.0°C ( 61°F) [RH = 32%]
Pressure (altimeter):30.02 inches Hg (1016.7 mb)
Winds:from the SSW (200 degrees) at 10 MPH (9 knots; 4.6 m/s)
Visibility:10 or more sm (16+ km)
Ceiling:at least 12,000 feet AGL
Clouds: scattered clouds at 6500 feet AGL
QC Flag:automated observation with no human augmentation
Text:KBIJ 072035Z AUTO 21006KT 10SM SCT065 35/16 A3002 RMK AO2
Temperature: 35.0°C ( 95°F)
Dewpoint: 16.0°C ( 61°F) [RH = 32%]
Pressure (altimeter):30.02 inches Hg (1016.7 mb)
Winds:from the SSW (210 degrees) at 7 MPH (6 knots; 3.1 m/s)
Visibility:10 or more sm (16+ km)
Ceiling:at least 12,000 feet AGL
Clouds: scattered clouds at 6500 feet AGL
QC Flag:automated observation with no human augmentation
Text:KBIJ 072015Z AUTO 24010G15KT 10SM SCT065 35/16 A3003 RMK AO2
Temperature: 35.0°C ( 95°F)
Dewpoint: 16.0°C ( 61°F) [RH = 32%]
Pressure (altimeter):30.03 inches Hg (1017.0 mb)
Winds:from the WSW (240 degrees) at 12 MPH (10 knots; 5.1 m/s) gusting to 17 MPH (15 knots; 7.7 m/s)
Visibility:10 or more sm (16+ km)
Ceiling:at least 12,000 feet AGL
Clouds: scattered clouds at 6500 feet AGL
QC Flag:automated observation with no human augmentation
Text:KBIJ 071955Z AUTO 21009KT 10SM SCT065 SCT100 35/16 A3003 RMK AO2
Temperature: 35.0°C ( 95°F)
Dewpoint: 16.0°C ( 61°F) [RH = 32%]
Pressure (altimeter):30.03 inches Hg (1017.0 mb)
Winds:from the SSW (210 degrees) at 10 MPH (9 knots; 4.6 m/s)
Visibility:10 or more sm (16+ km)
Ceiling:at least 12,000 feet AGL
Clouds: scattered clouds at 6500 feet AGL, scattered clouds at 10000 feet AGL
QC Flag:automated observation with no human augmentation
Text:KBIJ 071935Z AUTO 21009KT 10SM SCT060 SCT100 35/17 A3003 RMK AO2 LTG DSNT E AND W
Temperature: 35.0°C ( 95°F)
Dewpoint: 17.0°C ( 63°F) [RH = 34%]
Pressure (altimeter):30.03 inches Hg (1017.0 mb)
Winds:from the SSW (210 degrees) at 10 MPH (9 knots; 4.6 m/s)
Visibility:10 or more sm (16+ km)
Ceiling:at least 12,000 feet AGL
Clouds: scattered clouds at 6000 feet AGL, scattered clouds at 10000 feet AGL
QC Flag:automated observation with no human augmentation
Text:KBIJ 071915Z AUTO 25006KT 10SM CLR 34/17 A3005 RMK AO2
Temperature: 34.0°C ( 93°F)
Dewpoint: 17.0°C ( 63°F) [RH = 36%]
Pressure (altimeter):30.05 inches Hg (1017.7 mb)
Winds:from the WSW (250 degrees) at 7 MPH (6 knots; 3.1 m/s)
Visibility:10 or more sm (16+ km)
Ceiling:at least 12,000 feet AGL
Clouds:sky clear below 12,000 feet AGL
QC Flag:automated observation with no human augmentation
Text:KBIJ 071855Z AUTO 20007G14KT 10SM SCT055 SCT065 35/16 A3006 RMK AO2
Temperature: 35.0°C ( 95°F)
Dewpoint: 16.0°C ( 61°F) [RH = 32%]
Pressure (altimeter):30.06 inches Hg (1018.0 mb)
Winds:from the SSW (200 degrees) at 8 MPH (7 knots; 3.6 m/s) gusting to 16 MPH (14 knots; 7.2 m/s)
Visibility:10 or more sm (16+ km)
Ceiling:at least 12,000 feet AGL
Clouds: scattered clouds at 5500 feet AGL, scattered clouds at 6500 feet AGL
QC Flag:automated observation with no human augmentation
Text:KBIJ 071835Z AUTO 21007KT 10SM SCT055 SCT065 33/18 A3007 RMK AO2
Temperature: 33.0°C ( 91°F)
Dewpoint: 18.0°C ( 64°F) [RH = 41%]
Pressure (altimeter):30.07 inches Hg (1018.4 mb)
Winds:from the SSW (210 degrees) at 8 MPH (7 knots; 3.6 m/s)
Visibility:10 or more sm (16+ km)
Ceiling:at least 12,000 feet AGL
Clouds: scattered clouds at 5500 feet AGL, scattered clouds at 6500 feet AGL
QC Flag:automated observation with no human augmentation
Text:KBIJ 071815Z AUTO 22005KT 10SM CLR 33/17 A3007 RMK AO2
Temperature: 33.0°C ( 91°F)
Dewpoint: 17.0°C ( 63°F) [RH = 39%]
Pressure (altimeter):30.07 inches Hg (1018.4 mb)
Winds:from the SW (220 degrees) at 6 MPH (5 knots; 2.6 m/s)
Visibility:10 or more sm (16+ km)
Ceiling:at least 12,000 feet AGL
Clouds:sky clear below 12,000 feet AGL
QC Flag:automated observation with no human augmentation
Text:KBIJ 071755Z AUTO 24006KT 10SM SCT050 SCT065 33/18 A3007 RMK AO2
Temperature: 33.0°C ( 91°F)
Dewpoint: 18.0°C ( 64°F) [RH = 41%]
Pressure (altimeter):30.07 inches Hg (1018.4 mb)
Winds:from the WSW (240 degrees) at 7 MPH (6 knots; 3.1 m/s)
Visibility:10 or more sm (16+ km)
Ceiling:at least 12,000 feet AGL
Clouds: scattered clouds at 5000 feet AGL, scattered clouds at 6500 feet AGL
QC Flag:automated observation with no human augmentation
Text:KBIJ 071735Z AUTO 21008KT 10SM SCT050 SCT065 33/18 A3008 RMK AO2
Temperature: 33.0°C ( 91°F)
Dewpoint: 18.0°C ( 64°F) [RH = 41%]
Pressure (altimeter):30.08 inches Hg (1018.7 mb)
Winds:from the SSW (210 degrees) at 9 MPH (8 knots; 4.1 m/s)
Visibility:10 or more sm (16+ km)
Ceiling:at least 12,000 feet AGL
Clouds: scattered clouds at 5000 feet AGL, scattered clouds at 6500 feet AGL
QC Flag:automated observation with no human augmentation
Text:KBIJ 071715Z AUTO 23004KT 10SM SCT045 33/16 A3008 RMK AO2 LTG DSNT SW
Temperature: 33.0°C ( 91°F)
Dewpoint: 16.0°C ( 61°F) [RH = 36%]
Pressure (altimeter):30.08 inches Hg (1018.7 mb)
Winds:from the SW (230 degrees) at 5 MPH (4 knots; 2.1 m/s)
Visibility:10 or more sm (16+ km)
Ceiling:at least 12,000 feet AGL
Clouds: scattered clouds at 4500 feet AGL
QC Flag:automated observation with no human augmentation
Text:KBIJ 071650Z AUTO 21005KT 10SM SCT050 32/19 A3008 RMK AO2
Temperature: 32.0°C ( 90°F)
Dewpoint: 19.0°C ( 66°F) [RH = 46%]
Pressure (altimeter):30.08 inches Hg (1018.7 mb)
Winds:from the SSW (210 degrees) at 6 MPH (5 knots; 2.6 m/s)
Visibility:10 or more sm (16+ km)
Ceiling:at least 12,000 feet AGL
Clouds: scattered clouds at 5000 feet AGL
QC Flag:automated observation with no human augmentation
Text:KBIJ 071635Z AUTO 23004KT 10SM SCT038 SCT044 SCT050 32/19 A3008 RMK AO2
Temperature: 32.0°C ( 90°F)
Dewpoint: 19.0°C ( 66°F) [RH = 46%]
Pressure (altimeter):30.08 inches Hg (1018.7 mb)
Winds:from the SW (230 degrees) at 5 MPH (4 knots; 2.1 m/s)
Visibility:10 or more sm (16+ km)
Ceiling:at least 12,000 feet AGL
Clouds: scattered clouds at 3800 feet AGL, scattered clouds at 4400 feet AGL, scattered clouds at 5000 feet AGL
QC Flag:automated observation with no human augmentation
Text:KBIJ 071615Z AUTO 18003KT 10SM SCT037 BKN044 BKN055 31/20 A3008 RMK AO2 LTG DSNT S
Temperature: 31.0°C ( 88°F)
Dewpoint: 20.0°C ( 68°F) [RH = 52%]
Pressure (altimeter):30.08 inches Hg (1018.7 mb)
Winds:from the S (180 degrees) at 3 MPH (3 knots; 1.5 m/s)
Visibility:10 or more sm (16+ km)
Ceiling:4400 feet AGL
Clouds: scattered clouds at 3700 feet AGL, broken clouds at 4400 feet AGL, broken clouds at 5500 feet AGL
QC Flag:automated observation with no human augmentation
Text:KBIJ 071555Z AUTO 21007KT 170V240 10SM SCT065 SCT085 31/21 A3009 RMK AO2
Temperature: 31.0°C ( 88°F)
Dewpoint: 21.0°C ( 70°F) [RH = 55%]
Pressure (altimeter):30.09 inches Hg (1019.0 mb)
Winds:from the SSW (210 degrees) at 8 MPH (7 knots; 3.6 m/s)
Visibility:10 or more sm (16+ km)
Ceiling:at least 12,000 feet AGL
Clouds: scattered clouds at 6500 feet AGL, scattered clouds at 8500 feet AGL
QC Flag:automated observation with no human augmentation
Text:KBIJ 071535Z AUTO 23003KT 10SM SCT028 SCT041 30/21 A3009 RMK AO2 LTG DSNT SE
Temperature: 30.0°C ( 86°F)
Dewpoint: 21.0°C ( 70°F) [RH = 59%]
Pressure (altimeter):30.09 inches Hg (1019.0 mb)
Winds:from the SW (230 degrees) at 3 MPH (3 knots; 1.5 m/s)
Visibility:10 or more sm (16+ km)
Ceiling:at least 12,000 feet AGL
Clouds: scattered clouds at 2800 feet AGL, scattered clouds at 4100 feet AGL
QC Flag:automated observation with no human augmentation
Text:KBIJ 071515Z AUTO 20005KT 10SM SCT028 BKN038 BKN046 30/21 A3009 RMK AO2
Temperature: 30.0°C ( 86°F)
Dewpoint: 21.0°C ( 70°F) [RH = 59%]
Pressure (altimeter):30.09 inches Hg (1019.0 mb)
Winds:from the SSW (200 degrees) at 6 MPH (5 knots; 2.6 m/s)
Visibility:10 or more sm (16+ km)
Ceiling:3800 feet AGL
Clouds: scattered clouds at 2800 feet AGL, broken clouds at 3800 feet AGL, broken clouds at 4600 feet AGL
QC Flag:automated observation with no human augmentation
Text:KBIJ 071455Z AUTO 00000KT 10SM SCT026 SCT038 SCT046 30/22 A3008 RMK AO2 LTG DSNT S
Temperature: 30.0°C ( 86°F)
Dewpoint: 22.0°C ( 72°F) [RH = 62%]
Pressure (altimeter):30.08 inches Hg (1018.7 mb)
Winds:calm
Visibility:10 or more sm (16+ km)
Ceiling:at least 12,000 feet AGL
Clouds: scattered clouds at 2600 feet AGL, scattered clouds at 3800 feet AGL, scattered clouds at 4600 feet AGL
QC Flag:automated observation with no human augmentation
Text:KBIJ 071435Z AUTO 20004KT 10SM SCT021 SCT030 29/22 A3008 RMK AO2
Temperature: 29.0°C ( 84°F)
Dewpoint: 22.0°C ( 72°F) [RH = 66%]
Pressure (altimeter):30.08 inches Hg (1018.7 mb)
Winds:from the SSW (200 degrees) at 5 MPH (4 knots; 2.1 m/s)
Visibility:10 or more sm (16+ km)
Ceiling:at least 12,000 feet AGL
Clouds: scattered clouds at 2100 feet AGL, scattered clouds at 3000 feet AGL
QC Flag:automated observation with no human augmentation
Text:KBIJ 071415Z AUTO 23005KT 10SM SCT021 28/22 A3008 RMK AO2 LTG DSNT S
Temperature: 28.0°C ( 82°F)
Dewpoint: 22.0°C ( 72°F) [RH = 70%]
Pressure (altimeter):30.08 inches Hg (1018.7 mb)
Winds:from the SW (230 degrees) at 6 MPH (5 knots; 2.6 m/s)
Visibility:10 or more sm (16+ km)
Ceiling:at least 12,000 feet AGL
Clouds: scattered clouds at 2100 feet AGL
QC Flag:automated observation with no human augmentation
Text:KBIJ 071355Z AUTO 20006KT 10SM SCT019 28/22 A3008 RMK AO2 LTG DSNT SE AND S
Temperature: 28.0°C ( 82°F)
Dewpoint: 22.0°C ( 72°F) [RH = 70%]
Pressure (altimeter):30.08 inches Hg (1018.7 mb)
Winds:from the SSW (200 degrees) at 7 MPH (6 knots; 3.1 m/s)
Visibility:10 or more sm (16+ km)
Ceiling:at least 12,000 feet AGL
Clouds: scattered clouds at 1900 feet AGL
QC Flag:automated observation with no human augmentation
Text:KBIJ 071335Z AUTO 20004KT 10SM CLR 27/22 A3007 RMK AO2 LTG DSNT S
Temperature: 27.0°C ( 81°F)
Dewpoint: 22.0°C ( 72°F) [RH = 74%]
Pressure (altimeter):30.07 inches Hg (1018.4 mb)
Winds:from the SSW (200 degrees) at 5 MPH (4 knots; 2.1 m/s)
Visibility:10 or more sm (16+ km)
Ceiling:at least 12,000 feet AGL
Clouds:sky clear below 12,000 feet AGL
QC Flag:automated observation with no human augmentation
Text:KBIJ 071315Z AUTO 21003KT 10SM CLR 26/21 A3007 RMK AO2 LTG DSNT S
Temperature: 26.0°C ( 79°F)
Dewpoint: 21.0°C ( 70°F) [RH = 74%]
Pressure (altimeter):30.07 inches Hg (1018.4 mb)
Winds:from the SSW (210 degrees) at 3 MPH (3 knots; 1.5 m/s)
Visibility:10 or more sm (16+ km)
Ceiling:at least 12,000 feet AGL
Clouds:sky clear below 12,000 feet AGL
QC Flag:automated observation with no human augmentation
Text:KBIJ 071255Z AUTO 00000KT 10SM CLR 25/21 A3007 RMK AO2
Temperature: 25.0°C ( 77°F)
Dewpoint: 21.0°C ( 70°F) [RH = 79%]
Pressure (altimeter):30.07 inches Hg (1018.4 mb)
Winds:calm
Visibility:10 or more sm (16+ km)
Ceiling:at least 12,000 feet AGL
Clouds:sky clear below 12,000 feet AGL
QC Flag:automated observation with no human augmentation
Text:KBIJ 071235Z AUTO 00000KT 10SM CLR 23/21 A3007 RMK AO2
Temperature: 23.0°C ( 73°F)
Dewpoint: 21.0°C ( 70°F) [RH = 89%]
Pressure (altimeter):30.07 inches Hg (1018.4 mb)
Winds:calm
Visibility:10 or more sm (16+ km)
Ceiling:at least 12,000 feet AGL
Clouds:sky clear below 12,000 feet AGL
QC Flag:automated observation with no human augmentation
Text:KBIJ 071215Z AUTO 00000KT 10SM CLR 22/20 A3006 RMK AO2
Temperature: 22.0°C ( 72°F)
Dewpoint: 20.0°C ( 68°F) [RH = 88%]
Pressure (altimeter):30.06 inches Hg (1018.0 mb)
Winds:calm
Visibility:10 or more sm (16+ km)
Ceiling:at least 12,000 feet AGL
Clouds:sky clear below 12,000 feet AGL
QC Flag:automated observation with no human augmentation
Text:KBIJ 071155Z AUTO 00000KT 10SM CLR 21/20 A3006 RMK AO2
Temperature: 21.0°C ( 70°F)
Dewpoint: 20.0°C ( 68°F) [RH = 94%]
Pressure (altimeter):30.06 inches Hg (1018.0 mb)
Winds:calm
Visibility:10 or more sm (16+ km)
Ceiling:at least 12,000 feet AGL
Clouds:sky clear below 12,000 feet AGL
QC Flag:automated observation with no human augmentation
Text:KBIJ 071135Z AUTO 00000KT 7SM CLR 21/20 A3005 RMK AO2
Temperature: 21.0°C ( 70°F)
Dewpoint: 20.0°C ( 68°F) [RH = 94%]
Pressure (altimeter):30.05 inches Hg (1017.7 mb)
Winds:calm
Visibility: 7 sm ( 11 km)
Ceiling:at least 12,000 feet AGL
Clouds:sky clear below 12,000 feet AGL
QC Flag:automated observation with no human augmentation
Text:KBIJ 071115Z AUTO 00000KT 7SM CLR 21/20 A3005 RMK AO2
Temperature: 21.0°C ( 70°F)
Dewpoint: 20.0°C ( 68°F) [RH = 94%]
Pressure (altimeter):30.05 inches Hg (1017.7 mb)
Winds:calm
Visibility: 7 sm ( 11 km)
Ceiling:at least 12,000 feet AGL
Clouds:sky clear below 12,000 feet AGL
QC Flag:automated observation with no human augmentation
Text:KBIJ 071055Z AUTO 00000KT 10SM CLR 20/19 A3004 RMK AO2
Temperature: 20.0°C ( 68°F)
Dewpoint: 19.0°C ( 66°F) [RH = 94%]
Pressure (altimeter):30.04 inches Hg (1017.4 mb)
Winds:calm
Visibility:10 or more sm (16+ km)
Ceiling:at least 12,000 feet AGL
Clouds:sky clear below 12,000 feet AGL
QC Flag:automated observation with no human augmentation
Text:KBIJ 071035Z AUTO 00000KT 10SM CLR 20/19 A3003 RMK AO2
Temperature: 20.0°C ( 68°F)
Dewpoint: 19.0°C ( 66°F) [RH = 94%]
Pressure (altimeter):30.03 inches Hg (1017.0 mb)
Winds:calm
Visibility:10 or more sm (16+ km)
Ceiling:at least 12,000 feet AGL
Clouds:sky clear below 12,000 feet AGL
QC Flag:automated observation with no human augmentation
Text:KBIJ 071015Z AUTO 00000KT 7SM CLR 20/18 A3003 RMK AO2
Temperature: 20.0°C ( 68°F)
Dewpoint: 18.0°C ( 64°F) [RH = 88%]
Pressure (altimeter):30.03 inches Hg (1017.0 mb)
Winds:calm
Visibility: 7 sm ( 11 km)
Ceiling:at least 12,000 feet AGL
Clouds:sky clear below 12,000 feet AGL
QC Flag:automated observation with no human augmentation
Text:KBIJ 070955Z AUTO 00000KT 10SM CLR 20/19 A3003 RMK AO2
Temperature: 20.0°C ( 68°F)
Dewpoint: 19.0°C ( 66°F) [RH = 94%]
Pressure (altimeter):30.03 inches Hg (1017.0 mb)
Winds:calm
Visibility:10 or more sm (16+ km)
Ceiling:at least 12,000 feet AGL
Clouds:sky clear below 12,000 feet AGL
QC Flag:automated observation with no human augmentation
Text:KBIJ 070935Z AUTO 00000KT 7SM CLR 20/19 A3002 RMK AO2
Temperature: 20.0°C ( 68°F)
Dewpoint: 19.0°C ( 66°F) [RH = 94%]
Pressure (altimeter):30.02 inches Hg (1016.7 mb)
Winds:calm
Visibility: 7 sm ( 11 km)
Ceiling:at least 12,000 feet AGL
Clouds:sky clear below 12,000 feet AGL
QC Flag:automated observation with no human augmentation